Time;durP1;ratioP1;P1;durP2;ratioP2;P2;SDS_P1;SDS_P2;PMS_P1;PMS_P2;Temp;Humidity;BMP_temperature;BMP_pressure;BME280_temperature;BME280_humidity;BME280_pressure;Samples;Min_cycle;Max_cycle;Signal;HPM_P1;HPM_P2
2023/04/07 00:01:48;;;;;;;;;;;;;;;9.09;73.04;97981.28;5097244;28;19931;-68
2023/04/07 00:04:15;;;;;;;;;;;;;;;9.08;73.72;97981.53;5106304;28;19978;-68
2023/04/07 00:06:42;;;;;;;;;;;;;;;9.01;73.74;97989.72;5089532;28;19920;-68
2023/04/07 00:09:08;;;;;;;;;;;;;;;8.99;74.01;97988.34;5110010;28;19931;-72
2023/04/07 00:11:36;;;;;;;;;;;;;;;8.99;74.13;97988.34;5109656;28;19946;-67
2023/04/07 00:14:02;;;;;;;;;;;;;;;8.98;74.44;97982.22;5106456;28;19935;-67
2023/04/07 00:16:29;;;;;;;;;;;;;;;8.96;74.27;97987.00;5106625;28;19925;-69
2023/04/07 00:18:55;;;;;;;;;;;;;;;8.96;74.44;97987.00;5109616;28;19924;-68
2023/04/07 00:21:21;;;;;;;;;;;;;;;8.94;74.38;97986.47;5092174;28;19935;-67
2023/04/07 00:23:48;;;;;;;;;;;;;;;8.57;77.05;97980.94;5107659;28;19924;-67
2023/04/07 00:26:14;;;;;;;;;;;;;;;8.45;79.33;97982.94;5106503;28;19925;-68
2023/04/07 00:28:42;;;;;;;;;;;;;;;8.61;77.91;97983.94;5107350;28;19947;-68
2023/04/07 00:31:08;;;;;;;;;;;;;;;8.72;77.86;97982.19;5117358;28;20444;-68
2023/04/07 00:33:34;;;;;;;;;;;;;;;8.77;77.15;97975.06;5109484;28;19935;-68
2023/04/07 00:36:01;;;;;;;;;;;;;;;8.81;76.85;97967.41;5106273;28;19924;-69
2023/04/07 00:38:27;;;;;;;;;;;;;;;8.81;76.24;97964.72;5106204;28;19920;-68
2023/04/07 00:40:57;;;;;;;;;;;;;;;8.78;76.72;97971.38;5108952;28;19939;-67
2023/04/07 00:43:24;;;;;;;;;;;;;;;8.80;76.33;97979.09;5109427;28;19928;-67
2023/04/07 00:45:52;;;;;;;;;;;;;;;8.81;76.45;97972.72;5106769;28;19920;-68
2023/04/07 00:48:18;;;;;;;;;;;;;;;8.76;76.72;97968.13;5105683;28;19920;-67
2023/04/07 00:50:45;;;;;;;;;;;;;;;8.74;76.66;97975.56;5106939;28;19925;-67
2023/04/07 00:53:11;;;;;;;;;;;;;;;8.74;76.91;97969.44;5109127;28;19924;-68
2023/04/07 00:55:38;;;;;;;;;;;;;;;8.77;77.19;97958.28;5108440;28;19924;-69
2023/04/07 00:58:04;;;;;;;;;;;;;;;8.78;77.16;97965.22;5087531;28;20255;-67
2023/04/07 01:00:31;;;;;;;;;;;;;;;8.74;77.27;97958.78;5112990;28;19924;-67
2023/04/07 01:03:04;;;;;;;;;;;;;;;8.72;77.40;97960.91;5109110;28;19924;-67
2023/04/07 01:05:35;;;;;;;;;;;;;;;8.71;77.17;97956.63;5109939;28;19925;-67
2023/04/07 01:08:06;;;;;;;;;;;;;;;8.68;77.25;97960.59;5108172;28;19925;-68
2023/04/07 01:10:35;;;;;;;;;;;;;;;8.66;77.78;97958.16;5110082;28;19931;-68
2023/04/07 01:13:05;;;;;;;;;;;;;;;8.68;77.70;97950.75;5101898;28;19921;-66
2023/04/07 01:15:33;;;;;;;;;;;;;;;8.66;77.81;97952.84;5103307;28;19924;-67
2023/04/07 01:18:07;;;;;;;;;;;;;;;8.60;78.66;97953.06;5094223;28;19925;-66
2023/04/07 01:20:34;;;;;;;;;;;;;;;8.25;80.68;97947.25;5112131;28;19924;-67
2023/04/07 01:23:03;;;;;;;;;;;;;;;7.38;87.04;97955.03;5115473;28;19931;-67
2023/04/07 01:25:38;;;;;;;;;;;;;;;6.86;92.45;97946.44;5098256;28;19931;-67
2023/04/07 01:28:15;;;;;;;;;;;;;;;7.23;93.40;97947.63;5102285;28;19925;-67
2023/04/07 01:30:44;;;;;;;;;;;;;;;7.73;89.89;97936.19;5107177;28;19920;-67
2023/04/07 01:33:11;;;;;;;;;;;;;;;7.75;88.06;97944.72;5108758;28;19931;-68
2023/04/07 01:35:38;;;;;;;;;;;;;;;7.16;91.25;97951.47;5108862;28;19946;-68
2023/04/07 01:38:06;;;;;;;;;;;;;;;7.30;92.08;97948.28;5105559;28;19931;-69
2023/04/07 01:40:33;;;;;;;;;;;;;;;7.61;89.51;97939.72;5105126;28;19932;-68
2023/04/07 01:43:00;;;;;;;;;;;;;;;8.00;86.70;97942.41;5104784;28;19931;-69
2023/04/07 01:45:27;;;;;;;;;;;;;;;8.14;84.29;97933.00;5104676;28;19935;-65
2023/04/07 01:47:55;;;;;;;;;;;;;;;8.00;84.12;97931.78;5107331;28;19932;-67
2023/04/07 01:50:22;;;;;;;;;;;;;;;7.23;88.98;97936.19;5108106;28;19924;-69
2023/04/07 01:52:49;;;;;;;;;;;;;;;7.09;92.22;97946.31;5105602;28;19931;-67
2023/04/07 01:55:15;;;;;;;;;;;;;;;7.42;91.02;97935.72;5104582;28;19924;-67
2023/04/07 01:57:41;;;;;;;;;;;;;;;7.60;89.75;97932.81;5105524;28;19932;-69
2023/04/07 02:00:08;;;;;;;;;;;;;;;7.89;87.34;97932.69;5107770;28;19924;-67
2023/04/07 02:02:36;;;;;;;;;;;;;;;7.95;86.03;97929.06;5107208;28;19924;-69
2023/04/07 02:05:05;;;;;;;;;;;;;;;7.97;85.38;97926.94;5089682;28;19925;-67
2023/04/07 02:07:36;;;;;;;;;;;;;;;7.58;86.75;97929.56;5107766;28;19924;-67
2023/04/07 02:10:06;;;;;;;;;;;;;;;7.37;89.39;97927.66;5104109;28;19924;-68
2023/04/07 02:12:33;;;;;;;;;;;;;;;7.46;89.01;97925.41;5104071;28;19951;-69
2023/04/07 02:15:00;;;;;;;;;;;;;;;7.48;89.05;97921.47;5104093;28;19936;-68
2023/04/07 02:17:28;;;;;;;;;;;;;;;7.68;87.60;97920.16;5104343;28;19924;-68
2023/04/07 02:19:56;;;;;;;;;;;;;;;7.73;86.81;97922.91;5089223;28;19928;-67
2023/04/07 02:22:23;;;;;;;;;;;;;;;7.76;85.90;97920.56;5107566;28;19927;-68
2023/04/07 02:24:50;;;;;;;;;;;;;;;7.86;84.85;97927.88;5105242;28;19932;-68
2023/04/07 02:27:16;;;;;;;;;;;;;;;7.58;84.62;97918.94;5104039;28;19924;-66
2023/04/07 02:29:43;;;;;;;;;;;;;;;7.21;87.98;97922.38;5105239;28;19925;-69
2023/04/07 02:32:10;;;;;;;;;;;;;;;7.41;88.12;97912.84;5110823;28;19928;-68
2023/04/07 02:34:36;;;;;;;;;;;;;;;7.67;86.32;97905.25;5104326;28;19921;-67
2023/04/07 02:37:02;;;;;;;;;;;;;;;7.83;85.02;97912.41;5107478;28;19931;-69
2023/04/07 02:39:30;;;;;;;;;;;;;;;7.91;83.84;97904.81;5107328;28;19923;-69
2023/04/07 02:41:56;;;;;;;;;;;;;;;7.51;84.29;97913.03;5086068;28;19925;-68
2023/04/07 02:44:23;;;;;;;;;;;;;;;7.18;88.06;97904.25;5103779;28;19931;-68
2023/04/07 02:46:49;;;;;;;;;;;;;;;7.41;87.97;97904.06;5105748;28;19924;-67
2023/04/07 02:49:15;;;;;;;;;;;;;;;7.59;86.24;97904.63;5106945;28;19931;-68
2023/04/07 02:51:42;;;;;;;;;;;;;;;7.73;85.21;97906.94;5105943;28;19920;-68
2023/04/07 02:54:08;;;;;;;;;;;;;;;7.85;83.35;97899.66;5103304;28;19924;-68
2023/04/07 02:56:36;;;;;;;;;;;;;;;7.74;83.54;97905.88;5103231;28;19940;-68
2023/04/07 02:59:02;;;;;;;;;;;;;;;7.60;84.42;97905.44;5106738;28;19920;-67
2023/04/07 03:01:28;;;;;;;;;;;;;;;7.70;84.65;97896.81;5114455;28;19928;-66
2023/04/07 03:03:55;;;;;;;;;;;;;;;7.78;83.97;97891.06;5103628;28;19928;-68
2023/04/07 03:06:21;;;;;;;;;;;;;;;7.54;83.77;97896.59;5085366;28;19932;-68
2023/04/07 03:08:47;;;;;;;;;;;;;;;7.09;87.10;97882.59;5105482;28;19925;-69
2023/04/07 03:11:14;;;;;;;;;;;;;;;6.97;89.45;97895.94;5107109;28;20047;-68
2023/04/07 03:13:42;;;;;;;;;;;;;;;6.73;91.43;97888.34;5105954;28;19925;-68
2023/04/07 03:16:08;;;;;;;;;;;;;;;6.90;91.77;97883.88;5103092;28;19932;-68
2023/04/07 03:18:34;;;;;;;;;;;;;;;7.23;89.42;97891.84;5103563;28;19928;-70
2023/04/07 03:21:01;;;;;;;;;;;;;;;7.42;87.72;97893.22;5106717;28;19924;-68
2023/04/07 03:23:28;;;;;;;;;;;;;;;7.52;86.19;97895.22;5091588;28;19923;-69
2023/04/07 03:25:54;;;;;;;;;;;;;;;7.60;85.42;97884.16;5105969;28;19928;-69
2023/04/07 03:28:21;;;;;;;;;;;;;;;7.56;85.22;97886.50;5103313;28;19946;-67
2023/04/07 03:30:49;;;;;;;;;;;;;;;7.61;84.75;97886.56;5094846;28;19925;-68
2023/04/07 03:33:15;;;;;;;;;;;;;;;7.65;84.89;97900.19;5106610;28;19924;-67
2023/04/07 03:35:42;;;;;;;;;;;;;;;7.72;84.27;97886.72;5105468;28;19935;-70
2023/04/07 03:38:08;;;;;;;;;;;;;;;7.70;83.81;97883.50;5103283;28;19925;-68
2023/04/07 03:40:35;;;;;;;;;;;;;;;7.72;84.11;97876.09;5085642;28;19928;-68
2023/04/07 03:43:01;;;;;;;;;;;;;;;7.72;83.11;97868.91;5106603;28;19924;-68
2023/04/07 03:45:27;;;;;;;;;;;;;;;7.69;83.62;97881.88;5106557;28;19935;-68
2023/04/07 03:47:55;;;;;;;;;;;;;;;7.67;83.99;97884.00;5085781;28;19929;-68
2023/04/07 03:50:22;;;;;;;;;;;;;;;7.66;84.05;97887.69;5102923;28;19924;-68
2023/04/07 03:52:48;;;;;;;;;;;;;;;7.68;84.27;97888.25;5104915;28;19924;-69
2023/04/07 03:55:14;;;;;;;;;;;;;;;7.07;86.37;97876.72;5088390;28;19947;-69
2023/04/07 03:57:41;;;;;;;;;;;;;;;6.24;92.37;97877.38;5105315;28;19925;-72
2023/04/07 04:00:08;;;;;;;;;;;;;;;6.13;96.78;97877.41;5106700;28;19920;-68
2023/04/07 04:02:34;;;;;;;;;;;;;;;6.46;96.41;97893.44;5105933;28;19920;-67
2023/04/07 04:05:02;;;;;;;;;;;;;;;6.77;93.44;97876.22;5106305;28;19924;-68
2023/04/07 04:07:28;;;;;;;;;;;;;;;7.04;91.40;97880.66;5105913;28;19951;-67
2023/04/07 04:09:55;;;;;;;;;;;;;;;7.25;88.71;97878.31;5103116;28;19929;-68
2023/04/07 04:12:21;;;;;;;;;;;;;;;7.18;88.51;97877.69;5102606;28;19928;-68
2023/04/07 04:14:47;;;;;;;;;;;;;;;7.24;88.01;97874.84;5104562;28;19925;-69
2023/04/07 04:17:14;;;;;;;;;;;;;;;6.86;89.19;97872.94;5106017;28;20248;-68
2023/04/07 04:19:40;;;;;;;;;;;;;;;6.40;92.80;97881.94;5105074;28;19926;-69
2023/04/07 04:22:08;;;;;;;;;;;;;;;6.16;95.49;97871.63;5102350;28;19928;-68
2023/04/07 04:24:34;;;;;;;;;;;;;;;6.06;97.80;97872.25;5102434;28;19924;-68
2023/04/07 04:27:01;;;;;;;;;;;;;;;6.35;97.04;97871.19;5108024;28;19924;-68
2023/04/07 04:29:28;;;;;;;;;;;;;;;6.70;94.22;97870.25;5109672;28;19920;-68
2023/04/07 04:31:54;;;;;;;;;;;;;;;6.83;91.96;97876.06;5114260;28;19959;-68
2023/04/07 04:34:21;;;;;;;;;;;;;;;6.24;94.30;97869.41;5106046;28;19944;-67
2023/04/07 04:36:48;;;;;;;;;;;;;;;6.15;96.96;97876.13;5107728;28;19924;-68
2023/04/07 04:39:15;;;;;;;;;;;;;;;6.31;96.21;97872.72;5109466;28;20243;-69
2023/04/07 04:41:42;;;;;;;;;;;;;;;6.53;94.76;97872.06;5108002;28;19931;-69
2023/04/07 04:44:08;;;;;;;;;;;;;;;6.69;92.86;97871.28;5106111;28;19931;-67
2023/04/07 04:46:34;;;;;;;;;;;;;;;6.61;92.34;97879.63;5106054;28;19925;-70
2023/04/07 04:49:01;;;;;;;;;;;;;;;6.66;92.27;97877.88;5109472;28;20065;-68
2023/04/07 04:51:27;;;;;;;;;;;;;;;6.83;91.25;97869.94;5109406;28;19924;-68
2023/04/07 04:53:53;;;;;;;;;;;;;;;6.91;90.05;97873.00;5106743;28;19936;-68
2023/04/07 04:56:21;;;;;;;;;;;;;;;6.89;89.03;97876.94;5105976;28;19920;-69
2023/04/07 04:58:48;;;;;;;;;;;;;;;6.98;88.97;97873.66;5107504;28;19924;-67
2023/04/07 05:01:14;;;;;;;;;;;;;;;6.72;89.42;97871.59;5116744;28;19924;-67
2023/04/07 05:03:40;;;;;;;;;;;;;;;5.92;94.46;97876.97;5108006;28;19924;-67
2023/04/07 05:06:07;;;;;;;;;;;;;;;5.54;100.00;97865.28;5105499;28;19928;-68
2023/04/07 05:08:33;;;;;;;;;;;;;;;5.90;100.00;97873.78;5105542;28;19925;-68
2023/04/07 05:11:00;;;;;;;;;;;;;;;6.16;96.91;97864.47;5091141;28;19920;-67
2023/04/07 05:13:29;;;;;;;;;;;;;;;5.95;97.06;97862.44;5108993;28;19928;-67
2023/04/07 05:15:55;;;;;;;;;;;;;;;6.08;97.70;97870.16;5105821;28;19936;-69
2023/04/07 05:18:22;;;;;;;;;;;;;;;5.88;97.71;97861.81;5105450;28;19931;-67
2023/04/07 05:20:49;;;;;;;;;;;;;;;6.23;96.38;97862.50;5107479;28;19946;-67
2023/04/07 05:23:15;;;;;;;;;;;;;;;6.60;93.80;97867.41;5108575;28;19924;-67
2023/04/07 05:25:41;;;;;;;;;;;;;;;6.77;91.28;97870.91;5107688;28;19924;-67
2023/04/07 05:28:08;;;;;;;;;;;;;;;6.82;90.00;97868.31;5105998;28;19925;-69
2023/04/07 05:30:36;;;;;;;;;;;;;;;6.90;89.40;97875.91;5117402;28;19908;-67
2023/04/07 05:33:02;;;;;;;;;;;;;;;6.97;88.49;97866.72;5116643;28;19931;-68
2023/04/07 05:35:28;;;;;;;;;;;;;;;7.01;87.95;97873.19;5116723;28;19908;-69
2023/04/07 05:37:55;;;;;;;;;;;;;;;7.07;87.58;97874.06;5113658;28;19921;-68
2023/04/07 05:40:21;;;;;;;;;;;;;;;7.09;87.25;97876.50;5112956;28;19910;-68
2023/04/07 05:42:47;;;;;;;;;;;;;;;7.11;87.22;97879.69;5114956;28;19921;-68
2023/04/07 05:45:14;;;;;;;;;;;;;;;6.86;88.55;97872.13;5114063;28;19920;-67
2023/04/07 05:47:42;;;;;;;;;;;;;;;6.68;90.42;97869.69;5092659;28;19924;-68
2023/04/07 05:50:11;;;;;;;;;;;;;;;6.84;90.59;97869.69;5108106;28;19947;-67
2023/04/07 05:52:37;;;;;;;;;;;;;;;6.99;90.65;97875.25;5090008;28;19920;-68
2023/04/07 05:55:04;;;;;;;;;;;;;;;7.13;89.93;97867.78;5109102;28;19930;-68
2023/04/07 05:57:30;;;;;;;;;;;;;;;7.27;89.75;97869.06;5109045;28;19924;-68
2023/04/07 05:59:56;;;;;;;;;;;;;;;7.48;89.11;97864.88;5090781;28;20135;-68
2023/04/07 06:02:23;;;;;;;;;;;;;;;7.66;87.95;97867.25;5091837;28;19924;-68
2023/04/07 06:04:50;;;;;;;;;;;;;;;7.81;87.26;97872.75;5106974;28;19925;-69
2023/04/07 06:07:17;;;;;;;;;;;;;;;7.93;86.37;97875.31;5108048;28;19924;-68
2023/04/07 06:09:43;;;;;;;;;;;;;;;7.87;85.96;97871.78;5106606;28;19946;-68
2023/04/07 06:12:11;;;;;;;;;;;;;;;7.79;85.90;97871.41;5104516;28;20015;-67
2023/04/07 06:14:37;;;;;;;;;;;;;;;7.24;88.38;97872.19;5112711;28;19986;-67
2023/04/07 06:17:06;;;;;;;;;;;;;;;7.38;90.17;97876.16;5104399;28;19935;-69
2023/04/07 06:19:33;;;;;;;;;;;;;;;7.34;90.25;97880.31;5104252;28;19932;-68
2023/04/07 06:22:00;;;;;;;;;;;;;;;7.35;91.34;97881.13;5095926;28;19931;-68
2023/04/07 06:24:27;;;;;;;;;;;;;;;7.06;92.58;97880.41;5095896;28;19924;-66
2023/04/07 06:26:55;;;;;;;;;;;;;;;6.81;93.28;97870.16;5095492;28;19955;-67
2023/04/07 06:29:21;;;;;;;;;;;;;;;6.87;93.99;97874.53;5095641;28;19925;-68
2023/04/07 06:31:47;;;;;;;;;;;;;;;6.82;93.92;97879.75;5119688;28;19924;-68
2023/04/07 06:34:14;;;;;;;;;;;;;;;7.18;95.20;97878.47;5103973;28;19924;-68
2023/04/07 06:36:40;;;;;;;;;;;;;;;6.62;94.49;97876.75;5086948;28;20258;-67
2023/04/07 06:39:08;;;;;;;;;;;;;;;6.78;95.58;97883.91;5107452;28;19939;-68
2023/04/07 06:41:34;;;;;;;;;;;;;;;7.24;94.46;97874.84;5107245;28;19931;-69
2023/04/07 06:44:00;;;;;;;;;;;;;;;7.37;92.23;97877.19;5103957;28;19924;-68
2023/04/07 06:46:27;;;;;;;;;;;;;;;7.01;92.56;97880.34;5103741;28;19924;-68
2023/04/07 06:48:53;;;;;;;;;;;;;;;7.22;93.82;97871.66;5106031;28;19920;-68
2023/04/07 06:51:19;;;;;;;;;;;;;;;7.00;92.34;97870.75;5107092;28;19924;-67
2023/04/07 06:53:47;;;;;;;;;;;;;;;7.66;91.53;97871.75;5105423;28;19969;-69
2023/04/07 06:56:15;;;;;;;;;;;;;;;7.22;90.91;97873.50;5103802;28;19924;-67
2023/04/07 06:58:41;;;;;;;;;;;;;;;6.98;91.98;97867.53;5104429;28;19924;-66
2023/04/07 07:01:07;;;;;;;;;;;;;;;7.20;92.87;97868.44;5114786;28;19928;-67
2023/04/07 07:03:34;;;;;;;;;;;;;;;6.83;94.36;97869.94;5106871;28;19924;-68
2023/04/07 07:06:01;;;;;;;;;;;;;;;6.59;96.55;97873.78;5103267;28;19925;-67
2023/04/07 07:08:27;;;;;;;;;;;;;;;6.68;99.33;97877.66;5103417;28;19926;-68
2023/04/07 07:10:54;;;;;;;;;;;;;;;6.46;99.14;97864.25;5106062;28;19935;-68
2023/04/07 07:13:23;;;;;;;;;;;;;;;6.36;100.00;97867.53;5106727;28;19924;-67
2023/04/07 07:15:49;;;;;;;;;;;;;;;5.96;100.00;97869.38;5104535;28;19924;-68
2023/04/07 07:18:16;;;;;;;;;;;;;;;5.80;100.00;97875.34;5103269;28;20594;-68
2023/04/07 07:20:42;;;;;;;;;;;;;;;5.51;100.00;97876.34;5104602;28;19936;-67
2023/04/07 07:23:09;;;;;;;;;;;;;;;6.07;100.00;97868.53;5106887;28;19931;-68
2023/04/07 07:25:35;;;;;;;;;;;;;;;6.12;100.00;97865.19;5106505;28;19946;-67
2023/04/07 07:28:01;;;;;;;;;;;;;;;6.31;100.00;97870.06;5103239;28;19972;-67
2023/04/07 07:30:31;;;;;;;;;;;;;;;6.64;100.00;97876.50;5099113;28;19919;-66
2023/04/07 07:32:57;;;;;;;;;;;;;;;6.52;100.00;97876.56;5107036;28;19928;-67
2023/04/07 07:35:24;;;;;;;;;;;;;;;6.61;100.00;97874.31;5106789;28;19924;-68
2023/04/07 07:37:50;;;;;;;;;;;;;;;6.65;100.00;97865.66;5104455;28;19924;-67
2023/04/07 07:40:17;;;;;;;;;;;;;;;7.09;100.00;97882.59;5103129;28;19928;-68
2023/04/07 07:42:43;;;;;;;;;;;;;;;7.31;98.02;97866.72;5104660;28;19925;-67
2023/04/07 07:45:10;;;;;;;;;;;;;;;7.40;95.16;97873.22;5106702;28;20527;-68
2023/04/07 07:47:38;;;;;;;;;;;;;;;7.36;95.14;97877.44;5088523;28;19954;-68
2023/04/07 07:50:05;;;;;;;;;;;;;;;6.87;97.77;97877.19;5103136;28;19932;-69
2023/04/07 07:52:32;;;;;;;;;;;;;;;6.57;100.00;97878.50;5102875;28;19936;-68
2023/04/07 07:54:58;;;;;;;;;;;;;;;6.78;100.00;97877.81;5106460;28;19946;-68
2023/04/07 07:57:25;;;;;;;;;;;;;;;6.60;100.00;97875.34;5106295;28;19941;-67
2023/04/07 07:59:52;;;;;;;;;;;;;;;6.26;100.00;97872.63;5105825;28;20321;-68
2023/04/07 08:02:18;;;;;;;;;;;;;;;6.40;100.00;97871.31;5111218;28;19925;-68
2023/04/07 08:04:46;;;;;;;;;;;;;;;6.35;100.00;97881.00;5108108;28;20603;-67
2023/04/07 08:07:12;;;;;;;;;;;;;;;6.25;100.00;97865.69;5110100;28;19920;-67
2023/04/07 08:09:39;;;;;;;;;;;;;;;6.69;100.00;97865.97;5091417;28;19931;-68
2023/04/07 08:12:05;;;;;;;;;;;;;;;6.74;100.00;97858.94;5106665;28;19959;-70
2023/04/07 08:14:32;;;;;;;;;;;;;;;7.31;100.00;97859.56;5106745;28;19931;-66
2023/04/07 08:16:58;;;;;;;;;;;;;;;7.17;100.00;97866.25;5109754;28;19925;-68
2023/04/07 08:19:24;;;;;;;;;;;;;;;7.05;100.00;97865.53;5109926;28;19924;-68
2023/04/07 08:21:52;;;;;;;;;;;;;;;6.83;100.00;97868.09;5107512;28;19936;-67
2023/04/07 08:24:18;;;;;;;;;;;;;;;6.83;100.00;97867.28;5106511;28;19925;-68
2023/04/07 08:26:45;;;;;;;;;;;;;;;6.73;100.00;97865.25;5107450;28;19933;-67
2023/04/07 08:29:11;;;;;;;;;;;;;;;6.85;100.00;97860.69;5109825;28;19931;-67
2023/04/07 08:31:38;;;;;;;;;;;;;;;7.01;100.00;97856.44;5124979;28;19925;-68
2023/04/07 08:34:04;;;;;;;;;;;;;;;7.05;100.00;97854.91;5106411;28;19925;-68
2023/04/07 08:36:30;;;;;;;;;;;;;;;7.25;100.00;97854.41;5106272;28;19924;-68
2023/04/07 08:39:00;;;;;;;;;;;;;;;7.34;100.00;97855.59;5109377;28;19931;-69
2023/04/07 08:41:28;;;;;;;;;;;;;;;7.46;100.00;97851.00;5091812;28;19924;-67
2023/04/07 08:43:57;;;;;;;;;;;;;;;7.53;100.00;97846.31;5106664;28;19950;-68
2023/04/07 08:46:25;;;;;;;;;;;;;;;7.71;98.59;97851.34;5106092;28;19924;-67
2023/04/07 08:48:52;;;;;;;;;;;;;;;7.82;98.87;97836.34;5108483;28;19932;-69
2023/04/07 08:51:24;;;;;;;;;;;;;;;7.87;98.78;97842.53;5109503;28;19932;-68
2023/04/07 08:53:51;;;;;;;;;;;;;;;7.87;99.25;97841.72;5107150;28;20008;-67
2023/04/07 08:56:18;;;;;;;;;;;;;;;7.95;97.19;97839.44;5105913;28;19924;-67
2023/04/07 08:58:45;;;;;;;;;;;;;;;7.96;98.13;97845.56;5107226;28;19931;-67
2023/04/07 09:01:12;;;;;;;;;;;;;;;7.88;97.52;97838.84;5117092;28;19924;-67
2023/04/07 09:03:38;;;;;;;;;;;;;;;7.95;96.31;97841.31;5090448;28;19931;-67
2023/04/07 09:06:04;;;;;;;;;;;;;;;7.99;95.97;97845.06;5105894;28;19924;-67
2023/04/07 09:08:31;;;;;;;;;;;;;;;8.05;97.65;97844.88;5105508;28;19936;-69
2023/04/07 09:10:57;;;;;;;;;;;;;;;8.09;96.94;97845.19;5108713;28;19928;-66
2023/04/07 09:13:25;;;;;;;;;;;;;;;8.24;95.16;97844.56;5108588;28;19924;-68
2023/04/07 09:15:51;;;;;;;;;;;;;;;8.34;94.59;97842.84;5106343;28;19924;-69
2023/04/07 09:18:18;;;;;;;;;;;;;;;8.36;94.46;97837.25;5105411;28;19928;-68
2023/04/07 09:20:54;;;;;;;;;;;;;;;8.40;94.83;97836.53;5106605;28;19924;-68
2023/04/07 09:23:27;;;;;;;;;;;;;;;8.51;94.00;97838.22;5108409;28;19924;-68
2023/04/07 09:25:53;;;;;;;;;;;;;;;8.56;92.88;97830.31;5105891;28;19932;-67
2023/04/07 09:28:21;;;;;;;;;;;;;;;8.80;91.78;97830.78;5087483;28;19920;-68
2023/04/07 09:30:53;;;;;;;;;;;;;;;9.35;89.07;97821.59;5104659;28;20052;-68
2023/04/07 09:33:26;;;;;;;;;;;;;;;9.46;87.61;97823.28;5108698;28;19924;-69
2023/04/07 09:35:53;;;;;;;;;;;;;;;9.58;86.17;97821.22;5105801;28;19931;-69
2023/04/07 09:38:19;;;;;;;;;;;;;;;9.72;84.72;97815.16;5105004;28;19932;-68
2023/04/07 09:40:47;;;;;;;;;;;;;;;9.60;84.51;97814.56;5106638;28;19932;-67
2023/04/07 09:43:15;;;;;;;;;;;;;;;9.56;82.07;97805.47;5108502;28;19954;-69
2023/04/07 09:45:41;;;;;;;;;;;;;;;9.52;82.92;97809.72;5107268;28;19924;-68
2023/04/07 09:48:18;;;;;;;;;;;;;;;9.60;83.26;97814.56;5104615;28;19932;-67
2023/04/07 09:50:48;;;;;;;;;;;;;;;9.69;85.23;97814.88;5105819;28;19924;-70
2023/04/07 09:53:15;;;;;;;;;;;;;;;9.87;83.54;97808.31;5107855;28;20341;-70
2023/04/07 09:55:42;;;;;;;;;;;;;;;9.98;83.26;97804.59;5088656;28;19959;-71
2023/04/07 09:58:12;;;;;;;;;;;;;;;10.02;80.84;97800.34;5104266;28;19924;-71
2023/04/07 10:00:38;;;;;;;;;;;;;;;10.02;82.01;97803.03;5094575;28;19924;-69
2023/04/07 10:03:05;;;;;;;;;;;;;;;10.31;82.39;97798.84;5107471;28;19932;-68
2023/04/07 10:05:34;;;;;;;;;;;;;;;10.55;82.50;97797.28;5089640;28;19931;-69
2023/04/07 10:08:02;;;;;;;;;;;;;;;10.69;78.27;97802.91;5095465;28;19925;-69
2023/04/07 10:10:29;;;;;;;;;;;;;;;10.99;78.41;97794.91;5095481;28;19924;-67
2023/04/07 10:12:57;;;;;;;;;;;;;;;11.22;75.47;97798.91;5095212;28;19924;-67
2023/04/07 10:15:24;;;;;;;;;;;;;;;10.70;69.11;97791.97;5095440;28;19924;-70
2023/04/07 10:17:51;;;;;;;;;;;;;;;10.71;72.11;97798.91;5095226;28;19947;-70
2023/04/07 10:20:19;;;;;;;;;;;;;;;10.54;70.36;97790.38;5095093;28;19929;-67
2023/04/07 10:22:48;;;;;;;;;;;;;;;10.34;71.57;97790.31;5095268;28;19951;-68
2023/04/07 10:25:16;;;;;;;;;;;;;;;10.48;75.68;97788.75;5094999;28;19924;-70
2023/04/07 10:27:49;;;;;;;;;;;;;;;10.98;73.13;97795.19;5085838;28;19921;-68
2023/04/07 10:30:17;;;;;;;;;;;;;;;10.69;67.65;97785.03;5116251;28;19924;-70
2023/04/07 10:32:47;;;;;;;;;;;;;;;10.62;69.68;97789.81;5107205;28;19924;-68
2023/04/07 10:35:14;;;;;;;;;;;;;;;10.94;70.15;97772.75;5107137;28;19931;-68
2023/04/07 10:37:40;;;;;;;;;;;;;;;10.82;66.99;97776.50;5106508;28;19992;-70
2023/04/07 10:40:26;;;;;;;;;;;;;;;10.81;70.82;97777.56;5103726;28;19928;-69
2023/04/07 10:42:55;;;;;;;;;;;;;;;11.09;74.27;97778.06;5106451;28;19924;-70
2023/04/07 10:45:36;;;;;;;;;;;;;;;10.96;65.59;97778.59;5107556;28;19924;-70
2023/04/07 10:48:09;;;;;;;;;;;;;;;11.00;68.31;97777.00;5078237;28;19931;-69
2023/04/07 10:50:36;;;;;;;;;;;;;;;11.21;72.47;97773.22;5095273;28;19925;-68
2023/04/07 10:53:07;;;;;;;;;;;;;;;11.68;72.05;97770.97;5077038;28;19927;-67
2023/04/07 10:55:37;;;;;;;;;;;;;;;11.64;70.88;97763.75;5094926;28;19932;-67
2023/04/07 10:58:15;;;;;;;;;;;;;;;11.84;70.98;97764.53;5103387;28;19924;-66
2023/04/07 11:00:41;;;;;;;;;;;;;;;11.99;67.39;97760.97;5112059;28;19924;-68
2023/04/07 11:03:11;;;;;;;;;;;;;;;11.81;69.83;97759.72;5089050;28;19935;-67
2023/04/07 11:05:38;;;;;;;;;;;;;;;12.13;69.78;97756.63;5106427;28;19928;-68
2023/04/07 11:08:05;;;;;;;;;;;;;;;12.13;66.71;97769.22;5103586;28;19928;-67
2023/04/07 11:10:32;;;;;;;;;;;;;;;11.89;69.16;97756.47;5103235;28;19924;-66
2023/04/07 11:12:59;;;;;;;;;;;;;;;11.83;70.54;97754.09;5088517;28;19928;-67
2023/04/07 11:15:27;;;;;;;;;;;;;;;12.03;71.76;97755.88;5106607;28;19924;-66
2023/04/07 11:18:06;;;;;;;;;;;;;;;12.09;67.98;97754.78;5085936;28;19946;-66
2023/04/07 11:20:40;;;;;;;;;;;;;;;11.79;61.83;97756.50;5103063;28;19947;-66
2023/04/07 11:23:06;;;;;;;;;;;;;;;11.38;55.99;97757.72;5094542;28;19924;-67
2023/04/07 11:25:34;;;;;;;;;;;;;;;11.24;59.49;97751.31;5094725;28;19925;-67
2023/04/07 11:28:00;;;;;;;;;;;;;;;11.59;64.16;97756.56;5094347;28;19935;-68
2023/04/07 11:30:28;;;;;;;;;;;;;;;11.57;60.83;97758.72;5107926;28;19935;-67
2023/04/07 11:32:55;;;;;;;;;;;;;;;11.41;59.66;97751.81;5096623;28;20454;-67
2023/04/07 11:35:22;;;;;;;;;;;;;;;11.52;57.71;97748.03;5107249;28;19924;-66
2023/04/07 11:37:49;;;;;;;;;;;;;;;11.55;60.59;97752.84;5108212;28;19934;-67
2023/04/07 11:40:30;;;;;;;;;;;;;;;11.45;60.28;97749.41;5107416;28;19924;-76
2023/04/07 11:42:57;;;;;;;;;;;;;;;11.58;59.43;97754.16;5092424;28;19924;-74
2023/04/07 11:45:23;;;;;;;;;;;;;;;11.72;60.37;97749.88;5092752;28;19925;-75
2023/04/07 11:47:51;;;;;;;;;;;;;;;11.72;58.33;97752.53;5108418;28;19925;-73
2023/04/07 11:50:37;;;;;;;;;;;;;;;11.73;57.65;97740.75;5107442;28;19931;-74
2023/04/07 11:53:03;;;;;;;;;;;;;;;11.75;56.70;97749.31;5107304;28;19931;-72
2023/04/07 11:55:30;;;;;;;;;;;;;;;11.75;58.63;97747.44;5107048;28;19924;-71
2023/04/07 11:58:04;;;;;;;;;;;;;;;11.75;53.77;97738.63;5091674;28;19924;-72
2023/04/07 12:00:31;;;;;;;;;;;;;;;11.60;54.77;97747.47;5110006;28;20352;-70
2023/04/07 12:03:08;;;;;;;;;;;;;;;11.55;54.90;97744.00;5110019;28;19920;-72
2023/04/07 12:05:41;;;;;;;;;;;;;;;12.57;61.87;97750.44;5091959;28;19936;-69
2023/04/07 12:08:08;;;;;;;;;;;;;;;13.01;61.99;97743.09;5106300;28;19920;-70
2023/04/07 12:10:34;;;;;;;;;;;;;;;13.42;61.26;97735.50;5106221;28;19920;-69
2023/04/07 12:13:01;;;;;;;;;;;;;;;13.35;57.07;97729.66;5097678;28;19932;-70
2023/04/07 12:15:27;;;;;;;;;;;;;;;13.50;57.97;97734.84;5079499;28;19925;-69
2023/04/07 12:17:54;;;;;;;;;;;;;;;13.81;57.47;97733.41;5079598;28;19924;-70
2023/04/07 12:20:22;;;;;;;;;;;;;;;13.95;56.83;97734.31;5097513;28;19925;-68
2023/04/07 12:22:48;;;;;;;;;;;;;;;14.08;55.91;97733.59;5097520;28;19924;-70
2023/04/07 12:25:14;;;;;;;;;;;;;;;14.18;55.29;97737.22;5097554;28;19928;-67
2023/04/07 12:27:41;;;;;;;;;;;;;;;14.34;54.65;97741.31;5097287;28;20286;-68
2023/04/07 12:30:08;;;;;;;;;;;;;;;14.42;53.80;97732.63;5101401;28;19924;-68
2023/04/07 12:32:34;;;;;;;;;;;;;;;14.16;51.34;97744.78;5109437;28;19932;-69
2023/04/07 12:35:01;;;;;;;;;;;;;;;13.25;51.49;97743.16;5087849;28;19924;-68
2023/04/07 12:37:28;;;;;;;;;;;;;;;13.94;57.25;97735.41;5105668;28;19931;-69
2023/04/07 12:39:55;;;;;;;;;;;;;;;14.17;56.09;97731.06;5108492;28;19939;-68
2023/04/07 12:42:21;;;;;;;;;;;;;;;14.28;56.33;97731.72;5109177;28;19924;-70
2023/04/07 12:44:47;;;;;;;;;;;;;;;14.45;56.02;97729.34;5107326;28;19977;-69
2023/04/07 12:47:14;;;;;;;;;;;;;;;14.35;55.19;97727.59;5087051;28;19924;-68
2023/04/07 12:49:41;;;;;;;;;;;;;;;14.56;55.68;97728.09;5106672;28;19924;-68
2023/04/07 12:52:07;;;;;;;;;;;;;;;14.69;55.74;97724.66;5108905;28;19924;-69
2023/04/07 12:54:35;;;;;;;;;;;;;;;14.65;55.07;97726.34;5108923;28;20384;-67